Terminal Aerodrome Forecast
Issued by NWS Goodland, KS

Home | Current Version | Previous Version | Text Only | Print | Product List | Glossary On
Versions: 1 2 3 4 5 6 7 8 9 10 11 12 13 14 15 16 17 18 19 20
000
FTUS43 KGLD 260351 AAA
TAFGLD
TAF AMD
KGLD 260351Z 2604/2624 11007KT P6SM SCT007 BKN010
      TEMPO 2604/2606 BKN007
     FM260700 17006KT P6SM BKN012
     FM261000 VRB05KT 4SM BR SCT007 OVC012
     FM261600 14006KT P6SM SCT070=

USA.gov is the U.S. government's official web portal to all federal, state and local government web resources and services.